Time;durP1;ratioP1;P1;durP2;ratioP2;P2;SDS_P1;SDS_P2;PMS_P1;PMS_P2;Temp;Humidity;BMP_temperature;BMP_pressure;BME280_temperature;BME280_humidity;BME280_pressure;Samples;Min_cycle;Max_cycle;Signal;HPM_P1;HPM_P2
2021/04/06 00:02:17;;;;;;;1.25;0.63;;;21.00;65.80;;;;;;5027356;28;20033;-65
2021/04/06 00:04:48;;;;;;;3.28;0.73;;;21.00;65.70;;;;;;5024117;28;20112;-68
2021/04/06 00:07:18;;;;;;;4.38;1.00;;;21.00;65.70;;;;;;5028040;28;20096;-64
2021/04/06 00:09:49;;;;;;;0.77;0.57;;;21.00;65.70;;;;;;5029378;28;20022;-64
2021/04/06 00:12:19;;;;;;;7.05;2.38;;;21.00;65.80;;;;;;5025132;28;20036;-64
2021/04/06 00:14:47;;;;;;;2.72;0.95;;;21.00;65.80;;;;;;5023995;28;20025;-64
2021/04/06 00:17:15;;;;;;;1.90;0.75;;;21.00;65.90;;;;;;5031485;28;20415;-63
2021/04/06 00:19:45;;;;;;;4.20;1.13;;;21.00;65.90;;;;;;5026885;28;20029;-63
2021/04/06 00:22:15;;;;;;;3.38;0.75;;;21.00;65.90;;;;;;5025438;28;20017;-64
2021/04/06 00:24:46;;;;;;;3.80;1.25;;;21.00;65.90;;;;;;5025456;28;20385;-64
2021/04/06 00:27:41;;;;;;;4.60;1.00;;;20.90;65.80;;;;;;5029222;28;20045;-63
2021/04/06 00:30:13;;;;;;;4.25;1.55;;;21.00;65.80;;;;;;5025658;28;20120;-65
2021/04/06 00:32:41;;;;;;;3.38;0.90;;;20.90;65.70;;;;;;5028324;28;21275;-66
2021/04/06 00:35:09;;;;;;;2.83;0.98;;;21.00;65.80;;;;;;5039486;28;20765;-63
2021/04/06 00:37:48;;;;;;;4.28;1.17;;;20.90;65.70;;;;;;5025818;28;20386;-64
2021/04/06 00:40:16;;;;;;;2.45;0.70;;;20.90;65.70;;;;;;5023399;28;20496;-64
2021/04/06 00:42:43;;;;;;;3.83;1.00;;;20.90;65.60;;;;;;5027070;28;20515;-68
2021/04/06 00:45:10;;;;;;;3.55;0.80;;;20.90;65.60;;;;;;5028154;28;20024;-66
2021/04/06 00:47:37;;;;;;;4.45;0.88;;;20.90;65.60;;;;;;5027307;28;20022;-63
2021/04/06 00:50:13;;;;;;;0.65;0.47;;;20.90;65.60;;;;;;5022872;28;20037;-64
2021/04/06 00:52:44;;;;;;;3.85;1.35;;;20.90;65.50;;;;;;5022412;28;20520;-64
2021/04/06 00:55:19;;;;;;;6.65;0.80;;;20.90;65.60;;;;;;5022816;28;20076;-64
2021/04/06 00:57:46;;;;;;;1.98;1.08;;;20.80;65.50;;;;;;5029136;28;20286;-64
2021/04/06 01:00:13;;;;;;;6.03;1.40;;;20.90;65.60;;;;;;5028485;28;20033;-64
2021/04/06 01:02:43;;;;;;;2.72;0.70;;;20.80;65.60;;;;;;5024151;28;20022;-66
2021/04/06 01:05:10;;;;;;;5.43;1.23;;;20.80;65.70;;;;;;5021801;28;20021;-63
2021/04/06 01:07:37;;;;;;;3.83;0.80;;;20.80;65.70;;;;;;5029275;28;20040;-69
2021/04/06 01:10:08;;;;;;;3.53;0.90;;;20.80;65.70;;;;;;5026868;28;20119;-64
2021/04/06 01:12:34;;;;;;;2.50;0.57;;;20.80;65.60;;;;;;5021770;28;20057;-64
2021/04/06 01:15:01;;;;;;;4.07;1.58;;;20.80;65.60;;;;;;5024553;28;20392;-64
2021/04/06 01:17:32;;;;;;;1.42;0.57;;;20.80;65.60;;;;;;5031023;28;20159;-64
2021/04/06 01:20:04;;;;;;;2.03;0.80;;;20.80;65.60;;;;;;5022538;28;20387;-63
2021/04/06 01:22:32;;;;;;;2.35;0.70;;;20.80;66.20;;;;;;5029521;28;20104;-63
2021/04/06 01:24:58;;;;;;;1.65;0.73;;;20.80;65.60;;;;;;5028546;28;20017;-65
2021/04/06 01:27:25;;;;;;;2.80;0.73;;;20.70;65.50;;;;;;5021720;28;20014;-63
2021/04/06 01:29:56;;;;;;;1.98;0.75;;;20.70;65.50;;;;;;5024798;28;20068;-64
2021/04/06 01:32:28;;;;;;;4.30;0.70;;;20.70;65.50;;;;;;5023343;28;20042;-63
2021/04/06 01:34:56;;;;;;;2.92;0.68;;;20.70;65.60;;;;;;5025097;28;20041;-63
2021/04/06 01:37:25;;;;;;;4.43;1.77;;;20.70;65.60;;;;;;5027886;28;20352;-63
2021/04/06 01:39:54;;;;;;;2.28;1.30;;;20.70;66.20;;;;;;5028080;28;20551;-63
2021/04/06 01:42:27;;;;;;;4.38;0.77;;;20.70;65.50;;;;;;5028250;28;20025;-65
2021/04/06 01:44:56;;;;;;;4.07;0.80;;;20.70;66.10;;;;;;5022789;28;20028;-64
2021/04/06 01:47:25;;;;;;;5.88;0.95;;;20.70;65.50;;;;;;5026267;28;20033;-63
2021/04/06 01:49:51;;;;;;;2.22;0.90;;;20.70;65.50;;;;;;5018657;28;20026;-63
2021/04/06 01:52:18;;;;;;;2.25;0.73;;;20.60;65.50;;;;;;5023334;28;20470;-63
2021/04/06 01:54:56;;;;;;;1.60;0.88;;;20.60;65.50;;;;;;5022880;28;20014;-64
2021/04/06 01:57:34;;;;;;;1.95;0.77;;;20.60;65.60;;;;;;5026960;28;20028;-63
2021/04/06 02:00:05;;;;;;;5.57;0.90;;;20.60;65.60;;;;;;5023962;28;20026;-63
2021/04/06 02:02:34;;;;;;;2.13;0.70;;;20.60;65.60;;;;;;5024194;28;20515;-76
2021/04/06 02:05:03;;;;;;;1.88;0.80;;;20.60;65.60;;;;;;5027500;28;20065;-63
2021/04/06 02:07:34;;;;;;;3.92;1.13;;;20.60;65.60;;;;;;5025947;28;20033;-63
2021/04/06 02:10:05;;;;;;;3.80;0.68;;;20.60;65.60;;;;;;5025126;28;20036;-63
2021/04/06 02:12:43;;;;;;;3.50;0.80;;;20.50;65.50;;;;;;5028564;28;20017;-64
2021/04/06 02:15:12;;;;;;;2.08;1.00;;;20.50;65.50;;;;;;5024753;28;20117;-64
2021/04/06 02:17:53;;;;;;;2.78;0.80;;;20.50;65.50;;;;;;5018690;28;20037;-64
2021/04/06 02:20:24;;;;;;;7.35;1.02;;;20.50;65.50;;;;;;5021509;28;20025;-63
2021/04/06 02:23:04;;;;;;;3.25;1.10;;;20.50;65.30;;;;;;5024185;28;20040;-63
2021/04/06 02:25:31;;;;;;;3.58;0.65;;;20.50;65.30;;;;;;5023054;28;20524;-64
2021/04/06 02:27:58;;;;;;;2.03;1.00;;;20.50;65.30;;;;;;5029289;28;20023;-64
2021/04/06 02:30:31;;;;;;;1.98;0.70;;;20.50;65.30;;;;;;5027717;28;20032;-65
2021/04/06 02:32:59;;;;;;;3.60;0.90;;;20.50;65.30;;;;;;5025150;28;20132;-64
2021/04/06 02:35:26;;;;;;;2.83;0.93;;;20.50;65.30;;;;;;5022912;28;20029;-64
2021/04/06 02:37:53;;;;;;;4.00;1.52;;;20.40;65.30;;;;;;5027169;28;20049;-66
2021/04/06 02:40:21;;;;;;;3.65;1.10;;;20.50;65.40;;;;;;5027405;28;20067;-63
2021/04/06 02:42:54;;;;;;;4.68;0.93;;;20.40;65.40;;;;;;5023248;28;20033;-64
2021/04/06 02:45:30;;;;;;;5.07;1.00;;;20.40;65.40;;;;;;5024997;28;20049;-68
2021/04/06 02:48:19;;;;;;;0.88;0.50;;;20.40;65.50;;;;;;5026580;28;20029;-63
2021/04/06 02:50:45;;;;;;;2.60;1.00;;;20.40;65.50;;;;;;5025706;28;20037;-64
2021/04/06 02:53:17;;;;;;;1.25;0.73;;;20.40;65.60;;;;;;5024848;28;20025;-64
2021/04/06 02:55:43;;;;;;;2.22;0.70;;;20.40;65.60;;;;;;5020912;28;20065;-63
2021/04/06 02:58:15;;;;;;;4.82;0.85;;;20.30;65.60;;;;;;5027660;28;20032;-63
2021/04/06 03:00:42;;;;;;;4.93;0.77;;;20.30;65.60;;;;;;5025474;28;20029;-64
2021/04/06 03:03:28;;;;;;;2.58;1.10;;;20.30;65.60;;;;;;5023716;28;20036;-65
2021/04/06 03:06:11;;;;;;;2.17;0.90;;;20.40;65.70;;;;;;5025613;28;20021;-63
2021/04/06 03:08:39;;;;;;;3.25;0.70;;;20.30;65.80;;;;;;5018706;28;20329;-71
2021/04/06 03:11:08;;;;;;;2.08;0.70;;;20.30;65.80;;;;;;5021984;28;20017;-64
2021/04/06 03:13:40;;;;;;;6.30;1.70;;;20.30;65.90;;;;;;5022322;28;20477;-64
2021/04/06 03:16:09;;;;;;;4.38;1.20;;;20.30;66.00;;;;;;5022899;28;20037;-72
2021/04/06 03:18:38;;;;;;;2.35;1.00;;;20.20;65.90;;;;;;5022000;28;20123;-63
2021/04/06 03:21:12;;;;;;;5.40;1.15;;;20.30;66.00;;;;;;5027380;28;20016;-63
2021/04/06 03:23:39;;;;;;;3.78;1.08;;;20.30;66.10;;;;;;5024162;28;20034;-63
2021/04/06 03:26:07;;;;;;;3.38;1.02;;;20.20;66.10;;;;;;5022572;28;20045;-69
2021/04/06 03:28:35;;;;;;;4.53;1.20;;;20.20;66.20;;;;;;5021217;28;20040;-65
2021/04/06 03:31:21;;;;;;;2.47;1.00;;;20.20;66.20;;;;;;5020997;28;20407;-66
2021/04/06 03:33:49;;;;;;;2.15;0.90;;;20.20;66.20;;;;;;5025421;28;20481;-67
2021/04/06 03:36:28;;;;;;;1.80;0.90;;;20.20;66.20;;;;;;5021974;28;20034;-64
2021/04/06 03:38:57;;;;;;;1.55;0.75;;;20.20;66.20;;;;;;5022490;28;20026;-64
2021/04/06 03:41:26;;;;;;;5.00;1.17;;;20.20;66.30;;;;;;5014643;28;20091;-64
2021/04/06 03:43:54;;;;;;;4.30;1.02;;;20.20;66.30;;;;;;5026684;28;20103;-63
2021/04/06 03:46:25;;;;;;;4.57;1.05;;;20.20;66.30;;;;;;5024047;28;20014;-63
2021/04/06 03:48:52;;;;;;;5.88;1.25;;;20.20;66.40;;;;;;5025758;28;20025;-65
2021/04/06 03:51:30;;;;;;;2.80;0.95;;;20.20;66.50;;;;;;5028284;28;20044;-64
2021/04/06 03:53:57;;;;;;;2.85;0.82;;;20.20;66.50;;;;;;5023290;28;20021;-72
2021/04/06 03:56:33;;;;;;;5.60;2.38;;;20.20;66.50;;;;;;5022336;28;20083;-63
2021/04/06 03:59:08;;;;;;;4.95;0.90;;;20.10;66.60;;;;;;5024311;28;20551;-63
2021/04/06 04:01:35;;;;;;;3.42;1.35;;;20.10;66.60;;;;;;5025383;28;20018;-64
2021/04/06 04:04:01;;;;;;;2.88;0.85;;;20.10;66.60;;;;;;5024058;28;20018;-65
2021/04/06 04:06:31;;;;;;;4.32;2.65;;;20.10;66.60;;;;;;5023863;28;20033;-68
2021/04/06 04:08:57;;;;;;;12.20;9.68;;;20.10;66.60;;;;;;5028148;28;20021;-69
2021/04/06 04:11:24;;;;;;;12.55;10.60;;;20.10;66.60;;;;;;5025172;28;20072;-69
2021/04/06 04:13:51;;;;;;;9.57;6.63;;;20.10;66.60;;;;;;5027131;28;20025;-68
2021/04/06 04:16:17;;;;;;;9.48;5.63;;;20.10;67.30;;;;;;5024852;28;20038;-68
2021/04/06 04:18:45;;;;;;;15.32;10.70;;;20.10;66.70;;;;;;5028642;28;20022;-70
2021/04/06 04:21:12;;;;;;;14.98;10.98;;;20.10;66.70;;;;;;5029085;28;20120;-70
2021/04/06 04:23:39;;;;;;;8.85;7.25;;;20.10;66.70;;;;;;5030629;28;20018;-67
2021/04/06 04:26:06;;;;;;;12.48;5.78;;;20.10;66.80;;;;;;5019815;28;20029;-73
2021/04/06 04:28:33;;;;;;;7.55;4.65;;;20.10;66.80;;;;;;5023529;28;20034;-67
2021/04/06 04:31:05;;;;;;;3.67;2.55;;;20.10;66.90;;;;;;5026498;28;20025;-70
2021/04/06 04:33:32;;;;;;;3.65;2.67;;;20.00;66.90;;;;;;5024601;28;20041;-66
2021/04/06 04:35:58;;;;;;;4.50;2.17;;;20.00;66.90;;;;;;5022575;28;20411;-68
2021/04/06 04:38:25;;;;;;;3.30;1.50;;;20.00;67.00;;;;;;5019815;28;20026;-76
2021/04/06 04:40:52;;;;;;;9.38;6.93;;;20.00;67.70;;;;;;5020741;28;20071;-72
2021/04/06 04:43:19;;;;;;;10.30;7.15;;;20.00;67.00;;;;;;5021343;28;20563;-65
2021/04/06 04:45:46;;;;;;;7.63;5.40;;;20.00;67.10;;;;;;5018339;28;20112;-67
2021/04/06 04:48:13;;;;;;;7.20;4.20;;;20.00;67.10;;;;;;5023840;28;20029;-69
2021/04/06 04:50:40;;;;;;;6.72;3.40;;;20.00;67.20;;;;;;5024991;28;20072;-65
2021/04/06 04:53:06;;;;;;;6.18;2.30;;;20.00;67.20;;;;;;5023781;28;20400;-69
2021/04/06 04:55:33;;;;;;;5.07;2.08;;;20.00;67.30;;;;;;5024310;28;20124;-72
2021/04/06 04:57:59;;;;;;;3.40;1.58;;;20.00;67.30;;;;;;5024520;28;20029;-72
2021/04/06 05:00:26;;;;;;;3.40;1.17;;;20.00;67.30;;;;;;5024727;28;20392;-72
2021/04/06 05:02:53;;;;;;;3.13;1.15;;;19.90;67.30;;;;;;5021214;28;20021;-69
2021/04/06 05:05:20;;;;;;;3.95;1.33;;;19.90;67.40;;;;;;5023295;28;20022;-67
2021/04/06 05:07:47;;;;;;;5.38;1.40;;;19.90;67.40;;;;;;5027047;28;20473;-66
2021/04/06 05:10:16;;;;;;;5.03;1.20;;;19.90;67.40;;;;;;5020832;28;20021;-66
2021/04/06 05:12:45;;;;;;;3.22;1.27;;;19.90;67.40;;;;;;5017789;28;20026;-73
2021/04/06 05:15:12;;;;;;;3.60;1.20;;;19.90;67.50;;;;;;5021137;28;20041;-72
2021/04/06 05:17:38;;;;;;;6.10;1.48;;;19.90;67.50;;;;;;5023528;28;20323;-67
2021/04/06 05:20:06;;;;;;;5.20;1.42;;;19.90;67.60;;;;;;5025622;28;20021;-65
2021/04/06 05:22:33;;;;;;;3.78;1.00;;;19.90;67.60;;;;;;5020357;28;20034;-71
2021/04/06 05:24:59;;;;;;;4.75;1.00;;;19.90;67.60;;;;;;5025832;28;20055;-69
2021/04/06 05:27:26;;;;;;;7.18;1.60;;;19.90;67.60;;;;;;5022571;28;20022;-69
2021/04/06 05:29:52;;;;;;;4.25;1.17;;;19.90;67.70;;;;;;5021488;28;20516;-69
2021/04/06 05:32:19;;;;;;;5.78;1.10;;;19.90;67.70;;;;;;5020048;28;20044;-73
2021/04/06 05:34:46;;;;;;;3.50;1.05;;;19.90;67.80;;;;;;5022455;28;20037;-67
2021/04/06 05:37:12;;;;;;;1.95;0.93;;;19.90;67.80;;;;;;5025784;28;20171;-70
2021/04/06 05:39:39;;;;;;;3.80;1.20;;;19.90;67.90;;;;;;5020969;28;20492;-72
2021/04/06 05:42:07;;;;;;;3.30;1.13;;;19.90;67.90;;;;;;5022911;28;20096;-68
2021/04/06 05:44:36;;;;;;;2.60;0.98;;;19.90;68.00;;;;;;5022185;28;20022;-69
2021/04/06 05:47:04;;;;;;;3.00;1.10;;;19.90;68.10;;;;;;5023909;28;20033;-69
2021/04/06 05:49:35;;;;;;;6.03;1.63;;;19.90;68.20;;;;;;5022266;28;20469;-65
2021/04/06 05:52:02;;;;;;;5.13;1.40;;;19.90;68.20;;;;;;5037566;28;20414;-68
2021/04/06 05:54:29;;;;;;;3.55;1.00;;;19.90;68.20;;;;;;5028075;28;20025;-69
2021/04/06 05:56:55;;;;;;;4.13;1.10;;;19.90;68.30;;;;;;5023763;28;20034;-66
2021/04/06 05:59:22;;;;;;;3.45;1.27;;;19.90;68.30;;;;;;5022493;28;20033;-70
2021/04/06 06:01:49;;;;;;;4.47;1.42;;;19.90;68.30;;;;;;5027482;28;20034;-68
2021/04/06 06:04:17;;;;;;;4.75;2.00;;;19.90;68.30;;;;;;5023516;28;20087;-71
2021/04/06 06:06:44;;;;;;;4.38;1.17;;;19.90;68.40;;;;;;5021794;28;20026;-66
2021/04/06 06:09:12;;;;;;;2.67;1.13;;;19.90;68.50;;;;;;5021452;28;20021;-69
2021/04/06 06:12:02;;;;;;;3.92;1.52;;;19.90;68.50;;;;;;5023201;28;20029;-70
2021/04/06 06:14:30;;;;;;;2.08;1.08;;;19.90;68.70;;;;;;5022012;28;20383;-68
2021/04/06 06:16:57;;;;;;;6.32;1.27;;;19.90;68.90;;;;;;5021215;28;20033;-67
2021/04/06 06:19:31;;;;;;;3.28;1.27;;;19.90;68.90;;;;;;5027946;28;20021;-66
2021/04/06 06:22:10;;;;;;;5.30;1.25;;;19.90;69.10;;;;;;5023887;28;20362;-70
2021/04/06 06:24:43;;;;;;;1.98;0.80;;;19.90;69.10;;;;;;5022951;28;20028;-68
2021/04/06 06:27:24;;;;;;;4.28;1.15;;;19.90;69.10;;;;;;5021730;28;20053;-67
2021/04/06 06:29:50;;;;;;;2.22;0.85;;;19.90;69.10;;;;;;5025046;28;20559;-70
2021/04/06 06:32:23;;;;;;;3.50;1.20;;;19.90;69.10;;;;;;5022971;28;20069;-67
2021/04/06 06:34:51;;;;;;;2.55;1.02;;;19.90;69.10;;;;;;5025788;28;20033;-69
2021/04/06 06:37:27;;;;;;;3.15;1.10;;;20.00;69.10;;;;;;5027134;28;20053;-68
2021/04/06 06:39:59;;;;;;;1.70;0.90;;;20.00;69.10;;;;;;5017652;28;20022;-72
2021/04/06 06:42:37;;;;;;;5.40;1.10;;;20.00;69.00;;;;;;5021428;28;20683;-74
2021/04/06 06:45:22;;;;;;;3.13;1.23;;;20.00;69.10;;;;;;5019334;28;20021;-69
2021/04/06 06:47:55;;;;;;;;;;;20.00;69.00;;;;;;5026312;28;20044;-69
2021/04/06 06:50:21;;;;;;;3.08;1.48;;;20.00;69.00;;;;;;5025600;28;19905;-72
2021/04/06 06:52:53;;;;;;;8.05;1.33;;;20.10;68.90;;;;;;5022288;28;20022;-73
2021/04/06 06:55:25;;;;;;;2.08;1.40;;;20.10;68.90;;;;;;5030236;28;20069;-69
2021/04/06 06:58:05;;;;;;;3.80;1.30;;;20.10;68.90;;;;;;5020126;28;20049;-71
2021/04/06 07:00:32;;;;;;;1.60;0.68;;;20.20;68.90;;;;;;5021844;28;20025;-70
2021/04/06 07:02:59;;;;;;;4.45;1.13;;;20.10;68.70;;;;;;5023247;28;20029;-70
2021/04/06 07:05:28;;;;;;;3.17;0.95;;;20.20;68.70;;;;;;5029067;28;20099;-69
2021/04/06 07:07:59;;;;;;;2.47;1.08;;;20.20;68.70;;;;;;5021801;28;20052;-72
2021/04/06 07:10:34;;;;;;;4.95;0.85;;;20.20;68.70;;;;;;5019358;28;20362;-72
2021/04/06 07:13:21;;;;;;;5.25;1.33;;;20.20;68.60;;;;;;5024734;28;20030;-72
2021/04/06 07:15:50;;;;;;;3.35;1.10;;;20.30;68.70;;;;;;5023420;28;20042;-73
2021/04/06 07:18:19;;;;;;;2.55;0.98;;;20.30;68.70;;;;;;5033807;28;20037;-66
2021/04/06 07:21:02;;;;;;;3.00;1.15;;;20.30;68.80;;;;;;5030031;28;20032;-69
2021/04/06 07:24:03;;;;;;;4.68;0.80;;;20.40;68.70;;;;;;5024031;28;20022;-68
2021/04/06 07:26:30;;;;;;;3.90;0.60;;;20.40;68.50;;;;;;5026057;28;20097;-68
2021/04/06 07:28:58;;;;;;;1.30;0.70;;;20.40;68.40;;;;;;5020608;28;20106;-72
2021/04/06 07:31:24;;;;;;;4.00;1.38;;;20.50;68.30;;;;;;5021837;28;20034;-70
2021/04/06 07:33:52;;;;;;;2.03;0.55;;;20.50;68.30;;;;;;5023422;28;20076;-69
2021/04/06 07:36:26;;;;;;;3.60;0.70;;;20.50;68.10;;;;;;5021840;28;20037;-69
2021/04/06 07:38:59;;;;;;;2.80;1.10;;;20.60;68.10;;;;;;5030495;28;20053;-66
2021/04/06 07:41:29;;;;;;;3.30;1.10;;;20.60;68.00;;;;;;5028752;28;20018;-70
2021/04/06 07:43:57;;;;;;;1.75;0.65;;;20.60;67.90;;;;;;5022860;28;20021;-66
2021/04/06 07:46:48;;;;;;;4.55;1.60;;;20.70;67.80;;;;;;5024730;28;20040;-73
2021/04/06 07:49:19;;;;;;;6.53;0.90;;;20.70;67.70;;;;;;5025956;28;20041;-69
2021/04/06 07:51:46;;;;;;;3.85;0.98;;;20.80;67.60;;;;;;5030443;28;20531;-70
2021/04/06 07:54:32;;;;;;;4.72;1.30;;;20.80;67.30;;;;;;5022734;28;20021;-72
2021/04/06 07:57:00;;;;;;;2.38;1.08;;;20.80;67.00;;;;;;5024338;28;20041;-70
2021/04/06 07:59:26;;;;;;;2.85;1.00;;;20.90;67.00;;;;;;5031029;28;20033;-69
2021/04/06 08:01:58;;;;;;;4.82;1.27;;;20.90;66.80;;;;;;5026933;28;20029;-66
2021/04/06 08:04:43;;;;;;;3.63;0.77;;;20.90;66.70;;;;;;5026242;28;20088;-69
2021/04/06 08:07:26;;;;;;;4.70;1.30;;;20.90;66.50;;;;;;5026021;28;20087;-66
2021/04/06 08:09:57;;;;;;;1.85;0.80;;;21.00;66.40;;;;;;5029109;28;20435;-69
2021/04/06 08:12:33;;;;;;;1.35;0.80;;;21.00;66.20;;;;;;5020841;28;20021;-73
2021/04/06 08:15:11;;;;;;;6.00;1.05;;;21.10;66.20;;;;;;5028755;28;20060;-71
2021/04/06 08:17:39;;;;;;;2.53;0.73;;;21.10;66.00;;;;;;5026305;28;20025;-66
2021/04/06 08:20:14;;;;;;;4.22;0.70;;;21.10;65.80;;;;;;5029753;28;20500;-69
2021/04/06 08:23:00;;;;;;;3.38;1.00;;;21.10;65.60;;;;;;5028243;28;20021;-70
2021/04/06 08:25:29;;;;;;;4.65;0.80;;;21.20;65.60;;;;;;5027914;28;20021;-72
2021/04/06 08:27:58;;;;;;;2.88;0.80;;;21.30;65.60;;;;;;5025625;28;20472;-68
2021/04/06 08:30:38;;;;;;;4.82;0.90;;;21.30;65.40;;;;;;5023484;28;20030;-66
2021/04/06 08:33:07;;;;;;;3.88;0.90;;;21.30;65.10;;;;;;5028846;28;20068;-66
2021/04/06 08:35:49;;;;;;;6.60;0.70;;;21.40;64.70;;;;;;5027173;28;20036;-68
2021/04/06 08:38:33;;;;;;;3.80;1.10;;;21.40;64.30;;;;;;5026024;28;20029;-65
2021/04/06 08:41:08;;;;;;;3.40;1.27;;;21.50;64.20;;;;;;5025385;28;20052;-66
2021/04/06 08:43:42;;;;;;;3.53;1.23;;;21.50;64.10;;;;;;5026988;28;20112;-66
2021/04/06 08:46:09;;;;;;;6.47;1.67;;;21.60;63.90;;;;;;5026735;28;20029;-67
2021/04/06 08:48:45;;;;;;;1.38;0.68;;;21.70;63.20;;;;;;5022453;28;20031;-66
2021/04/06 08:51:39;;;;;;;1.25;0.63;;;21.70;63.00;;;;;;5027802;28;20033;-70
2021/04/06 08:54:09;;;;;;;1.88;0.60;;;21.80;62.60;;;;;;5024387;28;20029;-71
2021/04/06 08:56:41;;;;;;;2.17;0.65;;;21.90;62.50;;;;;;5027402;28;20033;-67
2021/04/06 08:59:18;;;;;;;5.05;0.98;;;21.90;62.40;;;;;;5025139;28;20921;-68
2021/04/06 09:01:56;;;;;;;4.10;0.90;;;21.90;62.60;;;;;;5021544;28;20072;-68
2021/04/06 09:04:25;;;;;;;4.68;1.30;;;22.00;62.50;;;;;;5026228;28;20385;-67
2021/04/06 09:06:52;;;;;;;2.92;0.70;;;22.10;62.40;;;;;;5027623;28;20026;-67
2021/04/06 09:09:22;;;;;;;4.30;0.75;;;22.10;62.10;;;;;;5021845;28;20022;-66
2021/04/06 09:11:50;;;;;;;5.15;1.10;;;22.10;61.80;;;;;;5025022;28;20063;-66
2021/04/06 09:14:18;;;;;;;2.80;0.90;;;22.20;61.60;;;;;;5027012;28;20025;-66
2021/04/06 09:16:44;;;;;;;2.92;1.67;;;22.20;61.40;;;;;;5025686;28;20056;-70
2021/04/06 09:19:14;;;;;;;1.25;0.80;;;22.30;61.20;;;;;;5023320;28;20017;-68
2021/04/06 09:21:44;;;;;;;1.35;1.00;;;22.30;61.10;;;;;;5022251;28;20030;-71
2021/04/06 09:24:14;;;;;;;7.05;1.55;;;22.40;60.80;;;;;;5027764;28;20022;-67
2021/04/06 09:26:41;;;;;;;6.80;2.15;;;22.50;60.60;;;;;;5027679;28;20508;-66
2021/04/06 09:29:19;;;;;;;1.67;0.90;;;22.50;60.30;;;;;;5025305;28;20029;-65
2021/04/06 09:32:05;;;;;;;4.05;1.20;;;22.60;59.70;;;;;;5023206;28;20048;-69
2021/04/06 09:34:38;;;;;;;3.53;1.65;;;22.70;59.00;;;;;;5021378;28;20521;-67
2021/04/06 09:37:09;;;;;;;5.00;1.58;;;22.70;58.70;;;;;;5022111;28;20488;-69
2021/04/06 09:39:39;;;;;;;6.40;2.28;;;22.80;58.20;;;;;;5019317;28;20072;-72
2021/04/06 09:42:07;;;;;;;2.20;1.45;;;22.80;58.10;;;;;;5026133;28;20500;-66
2021/04/06 09:44:37;;;;;;;8.80;1.92;;;22.90;57.80;;;;;;5027753;28;20025;-66
2021/04/06 09:47:07;;;;;;;2.55;1.63;;;23.00;57.70;;;;;;5025659;28;20476;-66
2021/04/06 09:49:39;;;;;;;4.32;1.80;;;23.00;57.70;;;;;;5024638;28;20013;-70
2021/04/06 09:52:16;;;;;;;5.35;1.40;;;23.10;57.50;;;;;;5028974;28;20385;-71
2021/04/06 09:54:47;;;;;;;2.33;1.40;;;23.20;57.40;;;;;;5030041;28;20055;-69
2021/04/06 09:57:14;;;;;;;2.85;1.23;;;23.20;57.10;;;;;;5022522;28;20033;-67
2021/04/06 09:59:50;;;;;;;1.92;1.52;;;23.30;56.70;;;;;;5023689;28;20046;-71
2021/04/06 10:02:21;;;;;;;4.65;1.40;;;23.30;56.30;;;;;;5018819;28;20104;-66
2021/04/06 10:04:50;;;;;;;4.32;1.42;;;23.40;55.40;;;;;;5025786;28;20376;-68
2021/04/06 10:07:17;;;;;;;4.25;1.05;;;23.40;55.60;;;;;;5023086;28;20389;-71
2021/04/06 10:09:50;;;;;;;1.80;0.93;;;23.40;55.40;;;;;;5021549;28;20121;-66
2021/04/06 10:12:17;;;;;;;3.83;1.55;;;23.50;55.20;;;;;;5024495;28;20457;-66
2021/04/06 10:14:45;;;;;;;2.50;1.10;;;23.60;55.10;;;;;;5029356;28;20045;-68
2021/04/06 10:17:15;;;;;;;2.78;0.70;;;23.70;55.10;;;;;;5025010;28;20120;-66
2021/04/06 10:20:05;;;;;;;1.88;1.33;;;23.70;54.90;;;;;;5023711;28;20516;-66
2021/04/06 10:22:52;;;;;;;2.08;1.02;;;23.80;54.80;;;;;;5023072;28;20025;-70
2021/04/06 10:25:21;;;;;;;1.73;0.77;;;23.90;54.50;;;;;;5024560;28;20030;-67
2021/04/06 10:27:58;;;;;;;5.53;1.20;;;24.00;54.20;;;;;;5023132;28;20036;-68
2021/04/06 10:30:33;;;;;;;4.07;0.98;;;24.00;53.90;;;;;;5026332;28;20104;-70
2021/04/06 10:33:12;;;;;;;2.28;0.93;;;24.10;53.70;;;;;;5019815;28;20041;-69
2021/04/06 10:35:56;;;;;;;2.80;1.30;;;24.10;53.50;;;;;;5021660;28;20049;-69
2021/04/06 10:38:34;;;;;;;2.55;1.60;;;24.20;53.20;;;;;;5026432;28;20531;-67
2021/04/06 10:41:14;;;;;;;0.93;0.77;;;24.30;53.10;;;;;;5026124;28;20535;-67
2021/04/06 10:43:44;;;;;;;2.58;1.10;;;24.40;52.80;;;;;;5026190;28;20112;-70
2021/04/06 10:46:16;;;;;;;2.35;0.93;;;24.40;52.80;;;;;;5026202;28;20453;-70
2021/04/06 10:49:03;;;;;;;1.83;1.15;;;24.50;52.70;;;;;;5024386;28;20025;-71
2021/04/06 10:51:31;;;;;;;1.65;1.00;;;24.60;52.60;;;;;;5025357;28;20108;-66
2021/04/06 10:54:09;;;;;;;1.17;0.80;;;24.70;52.40;;;;;;5023123;28;20083;-68
2021/04/06 10:56:54;;;;;;;2.30;1.38;;;24.70;51.90;;;;;;5028173;28;20125;-69
2021/04/06 10:59:37;;;;;;;1.60;0.80;;;24.80;51.70;;;;;;5025328;28;20076;-66
2021/04/06 11:02:04;;;;;;;2.45;1.33;;;24.90;51.70;;;;;;5023682;28;20033;-66
2021/04/06 11:04:39;;;;;;;1.73;0.90;;;25.00;51.40;;;;;;5026539;28;20480;-72
2021/04/06 11:07:09;;;;;;;1.50;0.80;;;25.00;51.00;;;;;;5026969;28;20038;-66
2021/04/06 11:09:38;;;;;;;2.65;1.00;;;25.10;50.90;;;;;;5026730;28;20029;-69
2021/04/06 11:12:11;;;;;;;3.97;1.10;;;25.20;50.90;;;;;;5021987;28;20057;-67
2021/04/06 11:14:39;;;;;;;3.67;1.10;;;25.20;50.60;;;;;;5023451;28;20026;-66
2021/04/06 11:17:06;;;;;;;2.83;0.90;;;25.30;50.10;;;;;;5024033;28;21033;-66
2021/04/06 11:19:39;;;;;;;2.80;1.00;;;25.30;49.80;;;;;;5018810;28;20026;-66
2021/04/06 11:22:11;;;;;;;3.30;1.10;;;25.40;50.10;;;;;;5020180;28;20052;-66
2021/04/06 11:24:39;;;;;;;9.10;1.30;;;25.50;50.20;;;;;;5026225;28;20048;-67
2021/04/06 11:27:08;;;;;;;4.60;1.23;;;25.60;50.40;;;;;;5025681;28;20084;-69
2021/04/06 11:29:36;;;;;;;2.70;1.17;;;25.60;50.00;;;;;;5022760;28;20030;-68
2021/04/06 11:32:11;;;;;;;2.55;1.10;;;25.60;49.90;;;;;;5024096;28;20164;-67
2021/04/06 11:34:39;;;;;;;2.92;1.25;;;25.60;49.30;;;;;;5018939;28;20038;-67
2021/04/06 11:37:06;;;;;;;4.45;2.10;;;25.60;49.10;;;;;;5025851;28;20370;-67
2021/04/06 11:39:36;;;;;;;5.13;1.25;;;25.60;49.10;;;;;;5024773;28;20030;-66
2021/04/06 11:42:04;;;;;;;4.90;1.30;;;25.70;49.40;;;;;;5024212;28;20024;-69
2021/04/06 11:44:32;;;;;;;5.15;1.42;;;25.70;49.40;;;;;;5026622;28;20025;-65
2021/04/06 11:46:59;;;;;;;4.40;1.05;;;25.80;49.10;;;;;;5021379;28;20033;-67
2021/04/06 11:49:26;;;;;;;5.72;2.00;;;25.80;49.10;;;;;;5025607;28;20054;-65
2021/04/06 11:51:53;;;;;;;2.38;0.85;;;25.70;48.50;;;;;;5022813;28;20071;-65
2021/04/06 11:54:21;;;;;;;1.95;1.13;;;25.70;48.90;;;;;;5023634;28;20014;-67
2021/04/06 11:56:49;;;;;;;5.20;1.20;;;25.80;48.50;;;;;;5017101;28;20389;-68
2021/04/06 11:59:16;;;;;;;4.53;1.33;;;25.80;48.40;;;;;;5019608;28;20107;-65
2021/04/06 12:01:43;;;;;;;6.07;2.33;;;25.80;48.10;;;;;;5029115;28;20049;-66
2021/04/06 12:04:11;;;;;;;3.00;1.50;;;25.90;48.00;;;;;;5021914;28;20044;-65
2021/04/06 12:06:38;;;;;;;7.13;1.40;;;25.90;48.00;;;;;;5023237;28;20030;-65
2021/04/06 12:09:06;;;;;;;4.75;1.55;;;25.90;47.70;;;;;;5025106;28;20552;-65
2021/04/06 12:11:34;;;;;;;2.28;0.80;;;26.00;47.60;;;;;;5024860;28;20070;-66
2021/04/06 12:14:00;;;;;;;3.33;1.15;;;26.00;47.10;;;;;;5027187;28;20021;-67
2021/04/06 12:16:27;;;;;;;3.88;0.85;;;26.10;46.80;;;;;;5017573;28;20029;-66
2021/04/06 12:18:53;;;;;;;2.72;0.90;;;26.20;46.70;;;;;;5022697;28;20044;-66
2021/04/06 12:21:19;;;;;;;2.67;0.80;;;26.20;46.40;;;;;;5026854;28;20103;-65
2021/04/06 12:23:46;;;;;;;2.85;1.10;;;26.20;46.10;;;;;;5027416;28;20029;-65
2021/04/06 12:26:13;;;;;;;6.55;1.38;;;26.30;45.90;;;;;;5028636;28;20029;-67
2021/04/06 12:28:40;;;;;;;2.65;0.80;;;26.30;45.50;;;;;;5024516;28;20020;-65
2021/04/06 12:31:06;;;;;;;2.85;0.93;;;26.30;45.60;;;;;;5026465;28;20026;-65
2021/04/06 12:33:35;;;;;;;3.88;2.55;;;26.40;45.30;;;;;;5023108;28;20424;-65
2021/04/06 12:36:04;;;;;;;4.68;1.10;;;26.40;45.00;;;;;;5029461;28;20088;-67
2021/04/06 12:38:30;;;;;;;4.88;1.13;;;26.30;44.40;;;;;;5023535;28;20097;-65
2021/04/06 12:40:57;;;;;;;2.47;0.73;;;26.40;44.80;;;;;;5023420;28;20018;-66
2021/04/06 12:43:24;;;;;;;2.05;0.95;;;26.40;44.70;;;;;;5023254;28;20366;-65
2021/04/06 12:45:50;;;;;;;1.42;0.70;;;26.40;44.40;;;;;;5029602;28;20047;-65
2021/04/06 12:48:17;;;;;;;3.22;0.70;;;26.40;44.40;;;;;;5029440;28;20022;-65
2021/04/06 12:50:43;;;;;;;3.67;1.25;;;26.40;44.20;;;;;;5027727;28;20021;-69
2021/04/06 12:53:10;;;;;;;2.25;0.63;;;26.40;44.20;;;;;;5028161;28;20099;-66
2021/04/06 12:55:36;;;;;;;7.38;0.98;;;26.50;44.00;;;;;;5026104;28;20033;-66
2021/04/06 12:58:03;;;;;;;0.93;0.70;;;26.50;44.00;;;;;;5024683;28;20033;-66
2021/04/06 13:00:30;;;;;;;2.65;1.25;;;26.60;44.10;;;;;;5025038;28;20029;-73
2021/04/06 13:02:57;;;;;;;3.00;0.88;;;26.60;43.80;;;;;;5024751;28;20025;-65
2021/04/06 13:05:23;;;;;;;2.40;0.63;;;26.60;43.80;;;;;;5023511;28;20051;-67
2021/04/06 13:07:50;;;;;;;2.25;0.80;;;26.60;43.50;;;;;;5020761;28;20068;-65